sensor_id;sensor_type;location;lat;lon;timestamp;temperature;humidity
32753;DHT22;19121;52.428;10.816;2023-07-24T00:01:52;25.00;47.30
32753;DHT22;19121;52.428;10.816;2023-07-24T00:04:17;25.00;47.30
32753;DHT22;19121;52.428;10.816;2023-07-24T00:06:42;25.00;47.30
32753;DHT22;19121;52.428;10.816;2023-07-24T00:09:08;25.00;47.30
32753;DHT22;19121;52.428;10.816;2023-07-24T00:11:33;24.90;47.30
32753;DHT22;19121;52.428;10.816;2023-07-24T00:13:59;25.00;47.30
32753;DHT22;19121;52.428;10.816;2023-07-24T00:16:24;25.00;47.30
32753;DHT22;19121;52.428;10.816;2023-07-24T00:18:49;24.90;47.20
32753;DHT22;19121;52.428;10.816;2023-07-24T00:21:15;24.90;47.30
32753;DHT22;19121;52.428;10.816;2023-07-24T00:23:40;24.90;47.30
32753;DHT22;19121;52.428;10.816;2023-07-24T00:26:06;24.90;47.30
32753;DHT22;19121;52.428;10.816;2023-07-24T00:28:32;24.90;47.30
32753;DHT22;19121;52.428;10.816;2023-07-24T00:30:57;24.90;47.30
32753;DHT22;19121;52.428;10.816;2023-07-24T00:33:22;24.90;47.30
32753;DHT22;19121;52.428;10.816;2023-07-24T00:35:48;24.90;47.30
32753;DHT22;19121;52.428;10.816;2023-07-24T00:38:13;24.90;47.30
32753;DHT22;19121;52.428;10.816;2023-07-24T00:40:39;24.90;47.30
32753;DHT22;19121;52.428;10.816;2023-07-24T00:43:04;24.90;47.30
32753;DHT22;19121;52.428;10.816;2023-07-24T00:45:30;24.90;47.40
32753;DHT22;19121;52.428;10.816;2023-07-24T00:47:55;24.90;47.40
32753;DHT22;19121;52.428;10.816;2023-07-24T00:50:21;24.90;47.40
32753;DHT22;19121;52.428;10.816;2023-07-24T00:52:46;24.90;47.40
32753;DHT22;19121;52.428;10.816;2023-07-24T00:55:12;24.90;47.40
32753;DHT22;19121;52.428;10.816;2023-07-24T00:57:38;24.90;47.40
32753;DHT22;19121;52.428;10.816;2023-07-24T01:00:04;24.90;47.40
32753;DHT22;19121;52.428;10.816;2023-07-24T01:02:30;24.90;47.40
32753;DHT22;19121;52.428;10.816;2023-07-24T01:04:55;24.90;47.40
32753;DHT22;19121;52.428;10.816;2023-07-24T01:07:21;24.90;47.50
32753;DHT22;19121;52.428;10.816;2023-07-24T01:09:46;24.90;47.40
32753;DHT22;19121;52.428;10.816;2023-07-24T01:12:18;24.90;47.40
32753;DHT22;19121;52.428;10.816;2023-07-24T01:17:45;24.80;47.40
32753;DHT22;19121;52.428;10.816;2023-07-24T01:20:12;24.90;47.50
32753;DHT22;19121;52.428;10.816;2023-07-24T01:22:45;24.80;47.40
32753;DHT22;19121;52.428;10.816;2023-07-24T01:25:32;24.80;47.40
32753;DHT22;19121;52.428;10.816;2023-07-24T01:28:00;24.80;47.40
32753;DHT22;19121;52.428;10.816;2023-07-24T01:30:26;24.80;47.40
32753;DHT22;19121;52.428;10.816;2023-07-24T01:32:51;24.80;47.50
32753;DHT22;19121;52.428;10.816;2023-07-24T01:35:17;24.80;47.40
32753;DHT22;19121;52.428;10.816;2023-07-24T01:37:42;24.80;47.50
32753;DHT22;19121;52.428;10.816;2023-07-24T01:40:08;24.80;47.50
32753;DHT22;19121;52.428;10.816;2023-07-24T01:42:34;24.80;47.50
32753;DHT22;19121;52.428;10.816;2023-07-24T01:45:01;24.80;47.50
32753;DHT22;19121;52.428;10.816;2023-07-24T01:47:27;24.80;47.50
32753;DHT22;19121;52.428;10.816;2023-07-24T01:49:52;24.80;47.50
32753;DHT22;19121;52.428;10.816;2023-07-24T01:52:18;24.80;47.50
32753;DHT22;19121;52.428;10.816;2023-07-24T01:54:43;24.80;47.50
32753;DHT22;19121;52.428;10.816;2023-07-24T01:57:08;24.80;47.60
32753;DHT22;19121;52.428;10.816;2023-07-24T01:59:34;24.80;47.60
32753;DHT22;19121;52.428;10.816;2023-07-24T02:01:59;24.80;47.60
32753;DHT22;19121;52.428;10.816;2023-07-24T02:04:25;24.80;47.60
32753;DHT22;19121;52.428;10.816;2023-07-24T02:06:50;24.80;47.60
32753;DHT22;19121;52.428;10.816;2023-07-24T02:09:19;24.80;47.60
32753;DHT22;19121;52.428;10.816;2023-07-24T02:11:44;24.80;47.60
32753;DHT22;19121;52.428;10.816;2023-07-24T02:14:12;24.80;47.60
32753;DHT22;19121;52.428;10.816;2023-07-24T02:16:38;24.80;47.60
32753;DHT22;19121;52.428;10.816;2023-07-24T02:19:03;24.80;47.60
32753;DHT22;19121;52.428;10.816;2023-07-24T02:21:29;24.70;47.60
32753;DHT22;19121;52.428;10.816;2023-07-24T02:23:54;24.70;47.60
32753;DHT22;19121;52.428;10.816;2023-07-24T02:26:20;24.70;47.60
32753;DHT22;19121;52.428;10.816;2023-07-24T02:28:45;24.70;47.60
32753;DHT22;19121;52.428;10.816;2023-07-24T02:31:11;24.80;47.70
32753;DHT22;19121;52.428;10.816;2023-07-24T02:33:36;24.70;47.60
32753;DHT22;19121;52.428;10.816;2023-07-24T02:36:02;24.70;47.60
32753;DHT22;19121;52.428;10.816;2023-07-24T02:38:27;24.70;47.60
32753;DHT22;19121;52.428;10.816;2023-07-24T02:40:53;24.70;47.70
32753;DHT22;19121;52.428;10.816;2023-07-24T02:43:18;24.70;47.70
32753;DHT22;19121;52.428;10.816;2023-07-24T02:45:44;24.70;47.70
32753;DHT22;19121;52.428;10.816;2023-07-24T02:48:09;24.70;47.70
32753;DHT22;19121;52.428;10.816;2023-07-24T02:50:35;24.70;47.70
32753;DHT22;19121;52.428;10.816;2023-07-24T02:53:00;24.70;47.70
32753;DHT22;19121;52.428;10.816;2023-07-24T02:55:26;24.70;47.70
32753;DHT22;19121;52.428;10.816;2023-07-24T02:57:51;24.70;47.70
32753;DHT22;19121;52.428;10.816;2023-07-24T03:00:17;24.70;47.70
32753;DHT22;19121;52.428;10.816;2023-07-24T03:02:42;24.70;47.70
32753;DHT22;19121;52.428;10.816;2023-07-24T03:05:08;24.70;47.70
32753;DHT22;19121;52.428;10.816;2023-07-24T03:07:33;24.70;47.70
32753;DHT22;19121;52.428;10.816;2023-07-24T03:09:59;24.70;47.70
32753;DHT22;19121;52.428;10.816;2023-07-24T03:12:24;24.70;47.70
32753;DHT22;19121;52.428;10.816;2023-07-24T03:14:50;24.60;47.70
32753;DHT22;19121;52.428;10.816;2023-07-24T03:17:15;24.60;47.70
32753;DHT22;19121;52.428;10.816;2023-07-24T03:19:41;24.70;47.70
32753;DHT22;19121;52.428;10.816;2023-07-24T03:22:07;24.60;47.70
32753;DHT22;19121;52.428;10.816;2023-07-24T03:24:33;24.60;47.70
32753;DHT22;19121;52.428;10.816;2023-07-24T03:26:59;24.60;47.70
32753;DHT22;19121;52.428;10.816;2023-07-24T03:29:25;24.60;47.70
32753;DHT22;19121;52.428;10.816;2023-07-24T03:31:51;24.60;47.70
32753;DHT22;19121;52.428;10.816;2023-07-24T03:34:16;24.60;47.80
32753;DHT22;19121;52.428;10.816;2023-07-24T03:36:42;24.60;47.70
32753;DHT22;19121;52.428;10.816;2023-07-24T03:39:09;24.60;47.80
32753;DHT22;19121;52.428;10.816;2023-07-24T03:41:34;24.60;47.80
32753;DHT22;19121;52.428;10.816;2023-07-24T03:44:00;24.60;47.80
32753;DHT22;19121;52.428;10.816;2023-07-24T03:46:25;24.60;47.80
32753;DHT22;19121;52.428;10.816;2023-07-24T03:48:51;24.60;47.80
32753;DHT22;19121;52.428;10.816;2023-07-24T03:51:16;24.60;47.80
32753;DHT22;19121;52.428;10.816;2023-07-24T03:53:42;24.60;47.80
32753;DHT22;19121;52.428;10.816;2023-07-24T03:56:07;24.60;47.80
32753;DHT22;19121;52.428;10.816;2023-07-24T03:58:33;24.60;47.80
32753;DHT22;19121;52.428;10.816;2023-07-24T04:00:58;24.60;47.80
32753;DHT22;19121;52.428;10.816;2023-07-24T04:03:23;24.60;47.80
32753;DHT22;19121;52.428;10.816;2023-07-24T04:05:49;24.60;47.80
32753;DHT22;19121;52.428;10.816;2023-07-24T04:08:14;24.60;47.90
32753;DHT22;19121;52.428;10.816;2023-07-24T04:10:40;24.60;47.90
32753;DHT22;19121;52.428;10.816;2023-07-24T04:13:05;24.60;47.90
32753;DHT22;19121;52.428;10.816;2023-07-24T04:15:31;24.60;47.90
32753;DHT22;19121;52.428;10.816;2023-07-24T04:17:56;24.60;47.90
32753;DHT22;19121;52.428;10.816;2023-07-24T04:20:21;24.60;47.90
32753;DHT22;19121;52.428;10.816;2023-07-24T04:22:47;24.60;47.90
32753;DHT22;19121;52.428;10.816;2023-07-24T04:25:12;24.60;47.90
32753;DHT22;19121;52.428;10.816;2023-07-24T04:27:38;24.60;47.90
32753;DHT22;19121;52.428;10.816;2023-07-24T04:30:03;24.60;47.90
32753;DHT22;19121;52.428;10.816;2023-07-24T04:32:29;24.60;47.90
32753;DHT22;19121;52.428;10.816;2023-07-24T04:34:54;24.60;47.90
32753;DHT22;19121;52.428;10.816;2023-07-24T04:37:20;24.60;48.50
32753;DHT22;19121;52.428;10.816;2023-07-24T04:39:45;24.60;48.00
32753;DHT22;19121;52.428;10.816;2023-07-24T04:42:11;24.60;48.00
32753;DHT22;19121;52.428;10.816;2023-07-24T04:44:36;24.60;48.00
32753;DHT22;19121;52.428;10.816;2023-07-24T04:47:01;24.60;48.00
32753;DHT22;19121;52.428;10.816;2023-07-24T04:49:31;24.60;48.00
32753;DHT22;19121;52.428;10.816;2023-07-24T04:51:58;24.60;48.00
32753;DHT22;19121;52.428;10.816;2023-07-24T04:54:23;24.60;48.10
32753;DHT22;19121;52.428;10.816;2023-07-24T04:56:49;24.60;48.10
32753;DHT22;19121;52.428;10.816;2023-07-24T04:59:14;24.60;48.10
32753;DHT22;19121;52.428;10.816;2023-07-24T05:01:40;24.60;48.00
32753;DHT22;19121;52.428;10.816;2023-07-24T05:04:05;24.60;48.00
32753;DHT22;19121;52.428;10.816;2023-07-24T05:06:30;24.60;48.00
32753;DHT22;19121;52.428;10.816;2023-07-24T05:08:56;24.60;48.00
32753;DHT22;19121;52.428;10.816;2023-07-24T05:11:21;24.60;48.10
32753;DHT22;19121;52.428;10.816;2023-07-24T05:13:47;24.60;48.10
32753;DHT22;19121;52.428;10.816;2023-07-24T05:16:12;24.60;48.10
32753;DHT22;19121;52.428;10.816;2023-07-24T05:18:38;24.60;48.10
32753;DHT22;19121;52.428;10.816;2023-07-24T05:21:03;24.60;48.10
32753;DHT22;19121;52.428;10.816;2023-07-24T05:23:28;24.60;48.10
32753;DHT22;19121;52.428;10.816;2023-07-24T05:26:00;24.70;48.10
32753;DHT22;19121;52.428;10.816;2023-07-24T05:28:26;24.70;48.10
32753;DHT22;19121;52.428;10.816;2023-07-24T05:30:52;24.70;48.20
32753;DHT22;19121;52.428;10.816;2023-07-24T05:33:18;24.70;48.10
32753;DHT22;19121;52.428;10.816;2023-07-24T05:35:43;24.70;48.20
32753;DHT22;19121;52.428;10.816;2023-07-24T05:38:09;24.70;48.20
32753;DHT22;19121;52.428;10.816;2023-07-24T05:40:34;24.70;48.20
32753;DHT22;19121;52.428;10.816;2023-07-24T05:43:00;24.70;48.20
32753;DHT22;19121;52.428;10.816;2023-07-24T05:45:26;24.70;48.20
32753;DHT22;19121;52.428;10.816;2023-07-24T05:47:51;24.70;48.20
32753;DHT22;19121;52.428;10.816;2023-07-24T05:50:17;24.80;48.30
32753;DHT22;19121;52.428;10.816;2023-07-24T05:52:42;24.80;48.50
32753;DHT22;19121;52.428;10.816;2023-07-24T05:55:08;24.70;48.70
32753;DHT22;19121;52.428;10.816;2023-07-24T05:57:33;24.80;49.00
32753;DHT22;19121;52.428;10.816;2023-07-24T05:59:59;24.80;49.10
32753;DHT22;19121;52.428;10.816;2023-07-24T06:02:24;24.80;49.50
32753;DHT22;19121;52.428;10.816;2023-07-24T06:04:49;24.90;50.00
32753;DHT22;19121;52.428;10.816;2023-07-24T06:07:15;24.90;50.40
32753;DHT22;19121;52.428;10.816;2023-07-24T06:09:40;24.90;50.60
32753;DHT22;19121;52.428;10.816;2023-07-24T06:12:06;24.90;51.20
32753;DHT22;19121;52.428;10.816;2023-07-24T06:14:31;24.90;51.50
32753;DHT22;19121;52.428;10.816;2023-07-24T06:16:57;24.90;52.00
32753;DHT22;19121;52.428;10.816;2023-07-24T06:19:22;24.90;51.90
32753;DHT22;19121;52.428;10.816;2023-07-24T06:21:48;24.90;52.00
32753;DHT22;19121;52.428;10.816;2023-07-24T06:24:13;24.90;52.70
32753;DHT22;19121;52.428;10.816;2023-07-24T06:26:39;25.00;52.40
32753;DHT22;19121;52.428;10.816;2023-07-24T06:29:04;25.00;52.20
32753;DHT22;19121;52.428;10.816;2023-07-24T06:31:30;25.00;52.90
32753;DHT22;19121;52.428;10.816;2023-07-24T06:33:55;25.00;52.80
32753;DHT22;19121;52.428;10.816;2023-07-24T06:36:21;25.00;53.00
32753;DHT22;19121;52.428;10.816;2023-07-24T06:38:46;25.00;52.80
32753;DHT22;19121;52.428;10.816;2023-07-24T06:41:13;25.00;53.00
32753;DHT22;19121;52.428;10.816;2023-07-24T06:43:40;25.00;53.20
32753;DHT22;19121;52.428;10.816;2023-07-24T06:46:06;25.10;53.40
32753;DHT22;19121;52.428;10.816;2023-07-24T06:48:31;25.10;53.20
32753;DHT22;19121;52.428;10.816;2023-07-24T06:50:57;25.10;53.30
32753;DHT22;19121;52.428;10.816;2023-07-24T06:53:22;25.10;53.20
32753;DHT22;19121;52.428;10.816;2023-07-24T06:55:48;25.00;54.20
32753;DHT22;19121;52.428;10.816;2023-07-24T06:58:13;25.00;53.60
32753;DHT22;19121;52.428;10.816;2023-07-24T07:00:39;25.10;54.00
32753;DHT22;19121;52.428;10.816;2023-07-24T07:03:04;25.00;54.10
32753;DHT22;19121;52.428;10.816;2023-07-24T07:05:31;25.10;54.30
32753;DHT22;19121;52.428;10.816;2023-07-24T07:07:56;25.10;54.50
32753;DHT22;19121;52.428;10.816;2023-07-24T07:10:22;25.10;54.60
32753;DHT22;19121;52.428;10.816;2023-07-24T07:12:47;25.10;54.70
32753;DHT22;19121;52.428;10.816;2023-07-24T07:15:13;25.10;54.90
32753;DHT22;19121;52.428;10.816;2023-07-24T07:17:38;25.10;55.00
32753;DHT22;19121;52.428;10.816;2023-07-24T07:20:04;25.10;55.40
32753;DHT22;19121;52.428;10.816;2023-07-24T07:22:30;25.10;55.50
32753;DHT22;19121;52.428;10.816;2023-07-24T07:24:55;25.10;55.50
32753;DHT22;19121;52.428;10.816;2023-07-24T07:27:20;25.10;55.70
32753;DHT22;19121;52.428;10.816;2023-07-24T07:29:46;25.10;56.00
32753;DHT22;19121;52.428;10.816;2023-07-24T07:32:11;25.10;55.80
32753;DHT22;19121;52.428;10.816;2023-07-24T07:34:37;25.00;56.40
32753;DHT22;19121;52.428;10.816;2023-07-24T07:37:04;25.10;55.70
32753;DHT22;19121;52.428;10.816;2023-07-24T07:39:30;25.10;55.60
32753;DHT22;19121;52.428;10.816;2023-07-24T07:41:55;25.10;55.70
32753;DHT22;19121;52.428;10.816;2023-07-24T07:44:21;25.10;55.70
32753;DHT22;19121;52.428;10.816;2023-07-24T07:46:46;25.10;55.50
32753;DHT22;19121;52.428;10.816;2023-07-24T07:49:11;25.10;55.50
32753;DHT22;19121;52.428;10.816;2023-07-24T07:51:37;25.10;55.40
32753;DHT22;19121;52.428;10.816;2023-07-24T07:54:02;25.10;55.40
32753;DHT22;19121;52.428;10.816;2023-07-24T07:56:28;25.10;55.30
32753;DHT22;19121;52.428;10.816;2023-07-24T07:58:53;25.10;55.30
32753;DHT22;19121;52.428;10.816;2023-07-24T08:01:19;25.10;55.30
32753;DHT22;19121;52.428;10.816;2023-07-24T08:03:45;25.10;55.30
32753;DHT22;19121;52.428;10.816;2023-07-24T08:06:10;25.10;55.10
32753;DHT22;19121;52.428;10.816;2023-07-24T08:08:36;25.10;55.10
32753;DHT22;19121;52.428;10.816;2023-07-24T08:11:05;25.20;55.10
32753;DHT22;19121;52.428;10.816;2023-07-24T08:13:31;25.10;55.00
32753;DHT22;19121;52.428;10.816;2023-07-24T08:15:57;25.20;54.90
32753;DHT22;19121;52.428;10.816;2023-07-24T08:18:22;25.20;55.60
32753;DHT22;19121;52.428;10.816;2023-07-24T08:20:48;25.20;54.90
32753;DHT22;19121;52.428;10.816;2023-07-24T08:23:13;25.20;54.90
32753;DHT22;19121;52.428;10.816;2023-07-24T08:25:38;25.20;54.90
32753;DHT22;19121;52.428;10.816;2023-07-24T08:28:04;25.20;54.90
32753;DHT22;19121;52.428;10.816;2023-07-24T08:30:30;25.30;54.90
32753;DHT22;19121;52.428;10.816;2023-07-24T08:32:56;25.30;54.80
32753;DHT22;19121;52.428;10.816;2023-07-24T08:35:23;25.30;54.70
32753;DHT22;19121;52.428;10.816;2023-07-24T08:37:48;25.40;54.70
32753;DHT22;19121;52.428;10.816;2023-07-24T08:40:14;25.40;54.60
32753;DHT22;19121;52.428;10.816;2023-07-24T08:42:41;25.40;54.40
32753;DHT22;19121;52.428;10.816;2023-07-24T08:45:11;25.40;54.40
32753;DHT22;19121;52.428;10.816;2023-07-24T08:47:38;25.40;54.30
32753;DHT22;19121;52.428;10.816;2023-07-24T08:50:04;25.50;54.30
32753;DHT22;19121;52.428;10.816;2023-07-24T08:52:30;25.50;54.20
32753;DHT22;19121;52.428;10.816;2023-07-24T08:54:56;25.50;54.10
32753;DHT22;19121;52.428;10.816;2023-07-24T08:57:22;25.50;54.00
32753;DHT22;19121;52.428;10.816;2023-07-24T08:59:49;25.50;53.90
32753;DHT22;19121;52.428;10.816;2023-07-24T09:02:14;25.60;53.90
32753;DHT22;19121;52.428;10.816;2023-07-24T09:04:39;25.60;53.80
32753;DHT22;19121;52.428;10.816;2023-07-24T09:07:05;25.60;53.80
32753;DHT22;19121;52.428;10.816;2023-07-24T09:09:32;25.60;53.70
32753;DHT22;19121;52.428;10.816;2023-07-24T09:11:57;25.60;53.60
32753;DHT22;19121;52.428;10.816;2023-07-24T09:14:26;25.60;53.50
32753;DHT22;19121;52.428;10.816;2023-07-24T09:17:10;25.60;53.40
32753;DHT22;19121;52.428;10.816;2023-07-24T09:19:36;25.70;53.40
32753;DHT22;19121;52.428;10.816;2023-07-24T09:22:11;25.60;53.30
32753;DHT22;19121;52.428;10.816;2023-07-24T09:24:37;25.70;53.30
32753;DHT22;19121;52.428;10.816;2023-07-24T09:27:04;25.70;53.20
32753;DHT22;19121;52.428;10.816;2023-07-24T09:29:30;25.70;53.10
32753;DHT22;19121;52.428;10.816;2023-07-24T09:31:56;25.70;53.10
32753;DHT22;19121;52.428;10.816;2023-07-24T09:34:21;25.70;53.00
32753;DHT22;19121;52.428;10.816;2023-07-24T09:36:47;25.70;53.00
32753;DHT22;19121;52.428;10.816;2023-07-24T09:39:12;25.70;52.90
32753;DHT22;19121;52.428;10.816;2023-07-24T09:41:38;25.70;53.00
32753;DHT22;19121;52.428;10.816;2023-07-24T09:44:04;25.70;53.00
32753;DHT22;19121;52.428;10.816;2023-07-24T09:46:30;25.70;53.10
32753;DHT22;19121;52.428;10.816;2023-07-24T09:48:57;25.60;53.10
32753;DHT22;19121;52.428;10.816;2023-07-24T09:51:22;25.70;53.30
32753;DHT22;19121;52.428;10.816;2023-07-24T09:56:39;25.60;53.40
32753;DHT22;19121;52.428;10.816;2023-07-24T09:59:05;25.60;53.60
32753;DHT22;19121;52.428;10.816;2023-07-24T10:01:31;25.60;53.80
32753;DHT22;19121;52.428;10.816;2023-07-24T10:03:57;25.60;53.90
32753;DHT22;19121;52.428;10.816;2023-07-24T10:06:24;25.60;54.00
32753;DHT22;19121;52.428;10.816;2023-07-24T10:08:50;25.60;54.10
32753;DHT22;19121;52.428;10.816;2023-07-24T10:11:16;25.60;54.30
32753;DHT22;19121;52.428;10.816;2023-07-24T10:13:42;25.60;54.40
32753;DHT22;19121;52.428;10.816;2023-07-24T10:16:07;25.60;54.40
32753;DHT22;19121;52.428;10.816;2023-07-24T10:18:34;25.60;54.40
32753;DHT22;19121;52.428;10.816;2023-07-24T10:21:09;25.60;54.50
32753;DHT22;19121;52.428;10.816;2023-07-24T10:23:35;25.70;54.50
32753;DHT22;19121;52.428;10.816;2023-07-24T10:26:04;25.60;54.30
32753;DHT22;19121;52.428;10.816;2023-07-24T10:28:31;25.60;54.40
32753;DHT22;19121;52.428;10.816;2023-07-24T10:30:57;25.60;54.30
32753;DHT22;19121;52.428;10.816;2023-07-24T10:33:22;25.70;54.40
32753;DHT22;19121;52.428;10.816;2023-07-24T10:35:53;25.70;54.40
32753;DHT22;19121;52.428;10.816;2023-07-24T10:38:18;25.60;54.30
32753;DHT22;19121;52.428;10.816;2023-07-24T10:40:45;25.70;54.30
32753;DHT22;19121;52.428;10.816;2023-07-24T10:43:17;25.70;54.20
32753;DHT22;19121;52.428;10.816;2023-07-24T10:45:47;25.60;54.20
32753;DHT22;19121;52.428;10.816;2023-07-24T10:48:14;25.70;54.20
32753;DHT22;19121;52.428;10.816;2023-07-24T10:50:40;25.70;54.10
32753;DHT22;19121;52.428;10.816;2023-07-24T10:53:06;25.70;54.00
32753;DHT22;19121;52.428;10.816;2023-07-24T10:55:31;25.70;54.00
32753;DHT22;19121;52.428;10.816;2023-07-24T10:57:57;25.70;53.90
32753;DHT22;19121;52.428;10.816;2023-07-24T11:00:23;25.70;53.90
32753;DHT22;19121;52.428;10.816;2023-07-24T11:02:48;25.70;53.90
32753;DHT22;19121;52.428;10.816;2023-07-24T11:05:14;25.70;53.90
32753;DHT22;19121;52.428;10.816;2023-07-24T11:07:40;25.70;53.80
32753;DHT22;19121;52.428;10.816;2023-07-24T11:10:14;25.80;53.90
32753;DHT22;19121;52.428;10.816;2023-07-24T11:12:39;25.80;53.80
32753;DHT22;19121;52.428;10.816;2023-07-24T11:15:05;25.70;53.70
32753;DHT22;19121;52.428;10.816;2023-07-24T11:17:34;25.80;53.70
32753;DHT22;19121;52.428;10.816;2023-07-24T11:20:10;25.70;53.60
32753;DHT22;19121;52.428;10.816;2023-07-24T11:22:37;25.80;53.70
32753;DHT22;19121;52.428;10.816;2023-07-24T11:25:03;25.80;53.70
32753;DHT22;19121;52.428;10.816;2023-07-24T11:27:30;25.80;53.70
32753;DHT22;19121;52.428;10.816;2023-07-24T11:29:55;25.80;53.60
32753;DHT22;19121;52.428;10.816;2023-07-24T11:32:21;25.80;53.60
32753;DHT22;19121;52.428;10.816;2023-07-24T11:34:48;25.80;53.60
32753;DHT22;19121;52.428;10.816;2023-07-24T11:37:13;25.80;53.60
32753;DHT22;19121;52.428;10.816;2023-07-24T11:39:39;25.80;53.60
32753;DHT22;19121;52.428;10.816;2023-07-24T11:42:05;25.80;53.60
32753;DHT22;19121;52.428;10.816;2023-07-24T11:44:30;25.80;53.70
32753;DHT22;19121;52.428;10.816;2023-07-24T11:47:03;25.80;53.60
32753;DHT22;19121;52.428;10.816;2023-07-24T11:49:29;25.80;53.60
32753;DHT22;19121;52.428;10.816;2023-07-24T11:52:02;25.80;53.70
32753;DHT22;19121;52.428;10.816;2023-07-24T11:54:28;25.80;53.70
32753;DHT22;19121;52.428;10.816;2023-07-24T11:56:53;25.80;53.70
32753;DHT22;19121;52.428;10.816;2023-07-24T11:59:19;25.80;53.70
32753;DHT22;19121;52.428;10.816;2023-07-24T12:01:47;25.80;53.60
32753;DHT22;19121;52.428;10.816;2023-07-24T12:04:13;25.80;53.70
32753;DHT22;19121;52.428;10.816;2023-07-24T12:06:39;25.80;53.60
32753;DHT22;19121;52.428;10.816;2023-07-24T12:09:05;25.80;53.50
32753;DHT22;19121;52.428;10.816;2023-07-24T12:11:31;25.80;53.40
32753;DHT22;19121;52.428;10.816;2023-07-24T12:13:57;25.80;53.40
32753;DHT22;19121;52.428;10.816;2023-07-24T12:16:22;25.90;54.00
32753;DHT22;19121;52.428;10.816;2023-07-24T12:18:47;25.80;53.30
32753;DHT22;19121;52.428;10.816;2023-07-24T12:21:13;25.80;53.30
32753;DHT22;19121;52.428;10.816;2023-07-24T12:23:38;25.80;53.30
32753;DHT22;19121;52.428;10.816;2023-07-24T12:26:04;25.90;53.30
32753;DHT22;19121;52.428;10.816;2023-07-24T12:28:29;25.90;53.30
32753;DHT22;19121;52.428;10.816;2023-07-24T12:30:55;25.80;53.20
32753;DHT22;19121;52.428;10.816;2023-07-24T12:33:20;25.80;53.10
32753;DHT22;19121;52.428;10.816;2023-07-24T12:35:51;25.80;53.20
32753;DHT22;19121;52.428;10.816;2023-07-24T12:38:18;25.80;54.60
32753;DHT22;19121;52.428;10.816;2023-07-24T12:40:43;25.80;56.00
32753;DHT22;19121;52.428;10.816;2023-07-24T12:43:09;25.80;56.60
32753;DHT22;19121;52.428;10.816;2023-07-24T12:45:35;25.80;56.10
32753;DHT22;19121;52.428;10.816;2023-07-24T12:48:00;25.80;56.00
32753;DHT22;19121;52.428;10.816;2023-07-24T12:50:25;25.80;56.10
32753;DHT22;19121;52.428;10.816;2023-07-24T12:52:51;25.80;57.60
32753;DHT22;19121;52.428;10.816;2023-07-24T12:55:16;25.80;56.60
32753;DHT22;19121;52.428;10.816;2023-07-24T12:57:42;25.80;57.20
32753;DHT22;19121;52.428;10.816;2023-07-24T13:00:07;25.80;57.20
32753;DHT22;19121;52.428;10.816;2023-07-24T13:02:34;25.80;57.80
32753;DHT22;19121;52.428;10.816;2023-07-24T13:05:00;25.80;58.60
32753;DHT22;19121;52.428;10.816;2023-07-24T13:07:25;25.80;59.20
32753;DHT22;19121;52.428;10.816;2023-07-24T13:09:50;25.80;58.50
32753;DHT22;19121;52.428;10.816;2023-07-24T13:12:16;25.80;58.80
32753;DHT22;19121;52.428;10.816;2023-07-24T13:14:41;25.80;58.20
32753;DHT22;19121;52.428;10.816;2023-07-24T13:17:07;25.80;58.10
32753;DHT22;19121;52.428;10.816;2023-07-24T13:19:33;25.70;57.90
32753;DHT22;19121;52.428;10.816;2023-07-24T13:21:58;25.70;57.90
32753;DHT22;19121;52.428;10.816;2023-07-24T13:24:24;25.70;57.20
32753;DHT22;19121;52.428;10.816;2023-07-24T13:26:49;25.70;56.80
32753;DHT22;19121;52.428;10.816;2023-07-24T13:29:15;25.60;56.40
32753;DHT22;19121;52.428;10.816;2023-07-24T13:31:40;25.50;56.40
32753;DHT22;19121;52.428;10.816;2023-07-24T13:34:06;25.50;56.00
32753;DHT22;19121;52.428;10.816;2023-07-24T13:36:32;25.50;56.20
32753;DHT22;19121;52.428;10.816;2023-07-24T13:38:58;25.50;56.10
32753;DHT22;19121;52.428;10.816;2023-07-24T13:41:23;25.50;56.00
32753;DHT22;19121;52.428;10.816;2023-07-24T13:43:49;25.60;56.00
32753;DHT22;19121;52.428;10.816;2023-07-24T13:46:14;25.60;55.90
32753;DHT22;19121;52.428;10.816;2023-07-24T13:48:39;25.60;55.80
32753;DHT22;19121;52.428;10.816;2023-07-24T13:51:05;25.60;55.70
32753;DHT22;19121;52.428;10.816;2023-07-24T13:53:30;25.70;55.70
32753;DHT22;19121;52.428;10.816;2023-07-24T13:55:56;25.70;55.60
32753;DHT22;19121;52.428;10.816;2023-07-24T13:58:21;25.70;55.50
32753;DHT22;19121;52.428;10.816;2023-07-24T14:00:47;25.70;55.40
32753;DHT22;19121;52.428;10.816;2023-07-24T14:03:12;25.70;55.40
32753;DHT22;19121;52.428;10.816;2023-07-24T14:05:37;25.70;55.40
32753;DHT22;19121;52.428;10.816;2023-07-24T14:08:03;25.70;55.40
32753;DHT22;19121;52.428;10.816;2023-07-24T14:10:29;25.70;55.30
32753;DHT22;19121;52.428;10.816;2023-07-24T14:12:54;25.70;55.30
32753;DHT22;19121;52.428;10.816;2023-07-24T14:15:20;25.70;55.20
32753;DHT22;19121;52.428;10.816;2023-07-24T14:17:46;25.70;55.40
32753;DHT22;19121;52.428;10.816;2023-07-24T14:20:12;25.70;55.40
32753;DHT22;19121;52.428;10.816;2023-07-24T14:22:37;25.80;55.40
32753;DHT22;19121;52.428;10.816;2023-07-24T14:25:03;25.80;55.40
32753;DHT22;19121;52.428;10.816;2023-07-24T14:27:29;25.80;55.40
32753;DHT22;19121;52.428;10.816;2023-07-24T14:29:54;25.80;55.40
32753;DHT22;19121;52.428;10.816;2023-07-24T14:32:20;25.70;55.50
32753;DHT22;19121;52.428;10.816;2023-07-24T14:34:49;25.70;55.50
32753;DHT22;19121;52.428;10.816;2023-07-24T14:37:15;25.70;55.50
32753;DHT22;19121;52.428;10.816;2023-07-24T14:39:40;25.80;55.70
32753;DHT22;19121;52.428;10.816;2023-07-24T14:42:06;25.80;55.70
32753;DHT22;19121;52.428;10.816;2023-07-24T14:44:31;25.80;55.70
32753;DHT22;19121;52.428;10.816;2023-07-24T14:46:56;25.80;55.70
32753;DHT22;19121;52.428;10.816;2023-07-24T14:49:22;25.80;55.70
32753;DHT22;19121;52.428;10.816;2023-07-24T14:51:47;25.80;55.60
32753;DHT22;19121;52.428;10.816;2023-07-24T14:54:13;25.80;55.50
32753;DHT22;19121;52.428;10.816;2023-07-24T14:56:38;25.80;55.40
32753;DHT22;19121;52.428;10.816;2023-07-24T14:59:03;25.80;55.30
32753;DHT22;19121;52.428;10.816;2023-07-24T15:01:29;25.80;55.40
32753;DHT22;19121;52.428;10.816;2023-07-24T15:03:56;25.80;55.30
32753;DHT22;19121;52.428;10.816;2023-07-24T15:06:21;25.80;55.30
32753;DHT22;19121;52.428;10.816;2023-07-24T15:08:47;25.80;55.40
32753;DHT22;19121;52.428;10.816;2023-07-24T15:11:12;25.80;55.40
32753;DHT22;19121;52.428;10.816;2023-07-24T15:13:38;25.80;55.30